Time;durP1;ratioP1;P1;durP2;ratioP2;P2;SDS_P1;SDS_P2;PMS_P1;PMS_P2;Temp;Humidity;BMP_temperature;BMP_pressure;BME280_temperature;BME280_humidity;BME280_pressure;Samples;Min_cycle;Max_cycle;Signal;HPM_P1;HPM_P2
2023/09/27 00:20:21;;;;;;;19.63;15.68;;;15.70;99.90;;;;;;4995373;28;20496;-58
2023/09/27 00:22:47;;;;;;;22.20;16.80;;;15.70;99.90;;;;;;5012394;28;20116;-58
2023/09/27 00:25:14;;;;;;;21.80;16.88;;;15.70;99.90;;;;;;5026885;28;20049;-58
2023/09/27 00:27:41;;;;;;;19.80;15.65;;;15.70;99.90;;;;;;5011690;28;20042;-59
2023/09/27 00:30:09;;;;;;;21.08;16.83;;;15.70;99.90;;;;;;5009490;28;20037;-59
2023/09/27 00:32:35;;;;;;;22.67;16.80;;;15.70;99.90;;;;;;5011607;28;20107;-57
2023/09/27 00:35:02;;;;;;;22.35;16.92;;;15.70;99.90;;;;;;5011537;28;20112;-57
2023/09/27 00:37:28;;;;;;;20.15;16.02;;;15.70;99.90;;;;;;5013413;28;20501;-59
2023/09/27 00:39:55;;;;;;;19.20;15.75;;;15.70;99.90;;;;;;5010061;28;20045;-57
2023/09/27 00:42:23;;;;;;;22.55;16.48;;;15.60;99.90;;;;;;5008826;28;20065;-57
2023/09/27 00:44:49;;;;;;;21.15;16.15;;;15.60;99.90;;;;;;5012338;28;20516;-58
2023/09/27 00:47:14;;;;;;;21.35;16.45;;;15.60;99.90;;;;;;5023771;28;20134;-57
2023/09/27 00:49:40;;;;;;;23.42;16.50;;;15.60;99.90;;;;;;5011395;28;20044;-58
2023/09/27 00:52:06;;;;;;;20.92;16.73;;;15.60;99.90;;;;;;5009729;28;20061;-58
2023/09/27 00:54:32;;;;;;;19.45;15.48;;;15.60;99.90;;;;;;5011875;28;20069;-58
2023/09/27 00:56:59;;;;;;;23.60;16.40;;;15.60;99.90;;;;;;5013291;28;20038;-58
2023/09/27 00:59:26;;;;;;;22.50;16.05;;;15.50;99.90;;;;;;5008385;28;20045;-57
2023/09/27 01:01:52;;;;;;;20.50;16.45;;;15.50;99.90;;;;;;5012872;28;22041;-57
2023/09/27 01:04:19;;;;;;;19.42;15.93;;;15.50;99.90;;;;;;5008356;28;20037;-57
2023/09/27 01:06:45;;;;;;;20.35;16.42;;;15.50;99.90;;;;;;5013231;28;20482;-57
2023/09/27 01:09:14;;;;;;;21.40;15.57;;;15.50;99.90;;;;;;5009432;28;20087;-57
2023/09/27 01:11:39;;;;;;;20.80;15.73;;;15.50;99.90;;;;;;5009674;28;20037;-59
2023/09/27 01:14:06;;;;;;;21.30;15.93;;;15.50;99.90;;;;;;5007678;28;20052;-58
2023/09/27 01:16:32;;;;;;;19.02;15.80;;;15.40;99.90;;;;;;5007725;28;20505;-56
2023/09/27 01:19:02;;;;;;;23.45;16.75;;;15.40;99.90;;;;;;4997173;28;20049;-59
2023/09/27 01:21:28;;;;;;;21.73;16.17;;;15.40;99.90;;;;;;5009091;28;20489;-58
2023/09/27 01:23:54;;;;;;;21.88;15.63;;;15.40;99.90;;;;;;5012012;28;20094;-58
2023/09/27 01:26:22;;;;;;;20.40;16.23;;;15.40;99.90;;;;;;4997696;28;20060;-58
2023/09/27 01:28:48;;;;;;;21.25;15.18;;;15.40;99.90;;;;;;5009081;28;20041;-57
2023/09/27 01:31:14;;;;;;;19.50;15.45;;;15.30;99.90;;;;;;5009494;28;20056;-58
2023/09/27 01:33:40;;;;;;;19.58;15.88;;;15.30;99.90;;;;;;5009939;28;20056;-58
2023/09/27 01:36:06;;;;;;;23.25;16.98;;;15.30;99.90;;;;;;5010036;28;20041;-57
2023/09/27 01:38:33;;;;;;;20.48;16.38;;;15.30;99.90;;;;;;4996083;28;20041;-58
2023/09/27 01:40:59;;;;;;;22.15;16.15;;;15.30;99.90;;;;;;5010590;28;20042;-56
2023/09/27 01:43:25;;;;;;;21.55;15.93;;;15.30;99.90;;;;;;5024590;28;20072;-58
2023/09/27 01:45:50;;;;;;;18.77;15.68;;;15.30;99.90;;;;;;5010008;28;20038;-58
2023/09/27 01:48:17;;;;;;;19.60;16.90;;;15.30;99.90;;;;;;5012011;28;20688;-58
2023/09/27 01:50:43;;;;;;;21.10;16.85;;;15.20;99.90;;;;;;5027239;28;20042;-57
2023/09/27 01:53:10;;;;;;;21.90;16.08;;;15.20;99.90;;;;;;5011054;28;20037;-59
2023/09/27 01:55:36;;;;;;;19.42;16.20;;;15.20;99.90;;;;;;5009446;28;20049;-58
2023/09/27 01:58:03;;;;;;;17.98;15.43;;;15.20;99.90;;;;;;5011659;28;20041;-57
2023/09/27 02:00:29;;;;;;;20.58;15.75;;;15.20;99.90;;;;;;5009441;28;20045;-59
2023/09/27 02:02:59;;;;;;;21.55;15.80;;;15.20;99.90;;;;;;5012683;28;20049;-58
2023/09/27 02:05:26;;;;;;;19.02;15.65;;;15.10;99.90;;;;;;5013811;28;20445;-57
2023/09/27 02:07:52;;;;;;;21.02;15.43;;;15.10;99.90;;;;;;5011788;28;20103;-58
2023/09/27 02:10:18;;;;;;;21.98;15.93;;;15.10;99.90;;;;;;5010613;28;20481;-57
2023/09/27 02:12:44;;;;;;;20.00;16.75;;;15.10;99.90;;;;;;5010429;28;20076;-58
2023/09/27 02:15:12;;;;;;;18.77;16.00;;;15.10;99.90;;;;;;5008200;28;20042;-58
2023/09/27 02:17:39;;;;;;;19.27;15.40;;;15.10;99.90;;;;;;5006905;28;20039;-57
2023/09/27 02:20:07;;;;;;;20.98;15.88;;;15.10;99.90;;;;;;5010650;28;20049;-57
2023/09/27 02:22:40;;;;;;;21.17;15.52;;;15.10;99.90;;;;;;5006206;28;20049;-57
2023/09/27 02:25:09;;;;;;;21.55;15.77;;;15.10;99.90;;;;;;4995333;28;20580;-57
2023/09/27 02:27:35;;;;;;;20.80;16.02;;;15.00;99.90;;;;;;5007967;28;20441;-58
2023/09/27 02:30:07;;;;;;;19.83;16.27;;;15.00;99.90;;;;;;5007289;28;20041;-56
2023/09/27 02:32:33;;;;;;;23.08;15.73;;;15.00;99.90;;;;;;5005977;28;20058;-58
2023/09/27 02:34:59;;;;;;;17.90;15.18;;;15.00;99.90;;;;;;4990822;28;20037;-57
2023/09/27 02:37:25;;;;;;;20.17;15.90;;;15.00;99.90;;;;;;5004294;28;20523;-59
2023/09/27 02:39:51;;;;;;;19.80;15.95;;;15.00;99.90;;;;;;5006815;28;20041;-58
2023/09/27 02:42:17;;;;;;;21.55;16.13;;;14.90;99.90;;;;;;5010360;28;20320;-57
2023/09/27 02:44:43;;;;;;;18.92;16.05;;;14.90;99.90;;;;;;5008548;28;20549;-58
2023/09/27 02:47:09;;;;;;;20.10;16.48;;;14.90;99.90;;;;;;5010613;28;20044;-57
2023/09/27 02:49:35;;;;;;;21.75;17.05;;;14.90;99.90;;;;;;5007789;28;20048;-58
2023/09/27 02:52:01;;;;;;;20.85;16.73;;;14.80;99.90;;;;;;5011122;28;20080;-58
2023/09/27 02:54:30;;;;;;;20.42;16.75;;;14.80;99.90;;;;;;5009957;28;20662;-58
2023/09/27 02:56:55;;;;;;;20.73;15.85;;;14.80;99.90;;;;;;5009814;28;20052;-58
2023/09/27 02:59:21;;;;;;;23.48;16.98;;;14.80;99.90;;;;;;5021633;28;20053;-58
2023/09/27 03:01:47;;;;;;;26.02;17.88;;;14.80;99.90;;;;;;5008257;28;20038;-56
2023/09/27 03:04:15;;;;;;;20.65;17.60;;;14.80;99.90;;;;;;5009921;28;20453;-58
2023/09/27 03:06:41;;;;;;;21.38;17.23;;;14.70;99.90;;;;;;5006610;28;20053;-57
2023/09/27 03:09:09;;;;;;;22.25;16.95;;;14.70;99.90;;;;;;5009886;28;20042;-56
2023/09/27 03:11:36;;;;;;;22.05;17.38;;;14.70;99.90;;;;;;5007302;28;20041;-57
2023/09/27 03:14:02;;;;;;;21.15;17.95;;;14.70;99.90;;;;;;5009716;28;20041;-58
2023/09/27 03:16:29;;;;;;;19.88;17.77;;;14.70;99.90;;;;;;5026144;28;20076;-58
2023/09/27 03:18:54;;;;;;;24.50;17.95;;;14.70;99.90;;;;;;5002249;28;20549;-57
2023/09/27 03:21:21;;;;;;;24.80;18.15;;;14.70;99.90;;;;;;4989124;28;20125;-58
2023/09/27 03:23:47;;;;;;;23.17;19.05;;;14.70;99.90;;;;;;4976566;28;20465;-58
2023/09/27 03:26:13;;;;;;;24.08;19.00;;;14.60;99.90;;;;;;4988766;28;20053;-58
2023/09/27 03:28:38;;;;;;;25.25;18.80;;;14.60;99.90;;;;;;4989174;28;20092;-58
2023/09/27 03:31:05;;;;;;;21.95;17.42;;;14.60;99.90;;;;;;4988877;28;20045;-58
2023/09/27 03:33:31;;;;;;;22.52;18.13;;;14.60;99.90;;;;;;4975761;28;20046;-58
2023/09/27 03:35:57;;;;;;;23.55;18.65;;;14.60;99.90;;;;;;4976156;28;20046;-59
2023/09/27 03:38:23;;;;;;;23.33;18.38;;;14.60;99.90;;;;;;4989041;28;20552;-58
2023/09/27 03:40:50;;;;;;;22.77;18.15;;;14.60;99.90;;;;;;4986535;28;20414;-57
2023/09/27 03:43:17;;;;;;;24.17;19.35;;;14.60;99.90;;;;;;4986591;28;20124;-57
2023/09/27 03:45:43;;;;;;;25.33;19.63;;;14.60;99.90;;;;;;4979659;28;20398;-58
2023/09/27 03:48:08;;;;;;;24.95;18.88;;;14.60;99.90;;;;;;5008702;28;24431;-58
2023/09/27 03:50:35;;;;;;;31.58;19.33;;;14.60;99.90;;;;;;5013707;28;20068;-58
2023/09/27 03:53:00;;;;;;;26.05;19.45;;;14.60;99.90;;;;;;4980782;28;20485;-59
2023/09/27 03:55:27;;;;;;;22.50;19.33;;;14.60;99.90;;;;;;5012689;28;20132;-58
2023/09/27 03:57:53;;;;;;;24.45;19.55;;;14.60;99.90;;;;;;4998812;28;20029;-57
2023/09/27 04:00:20;;;;;;;24.73;19.13;;;14.50;99.90;;;;;;4994119;28;20041;-56
2023/09/27 04:02:46;;;;;;;25.65;19.30;;;14.50;99.90;;;;;;5012626;28;20567;-58
2023/09/27 04:05:13;;;;;;;30.25;20.17;;;14.50;99.90;;;;;;5011171;28;20432;-57
2023/09/27 04:07:39;;;;;;;23.50;20.17;;;14.50;99.90;;;;;;5011119;28;20524;-58
2023/09/27 04:10:07;;;;;;;25.25;20.45;;;14.50;99.90;;;;;;5011316;28;20073;-58
2023/09/27 04:12:36;;;;;;;24.95;21.00;;;14.50;99.90;;;;;;5011971;28;20412;-58
2023/09/27 04:15:08;;;;;;;25.52;20.20;;;14.40;99.90;;;;;;4997191;28;20037;-58
2023/09/27 04:17:35;;;;;;;28.80;20.88;;;14.40;99.90;;;;;;5011703;28;20509;-58
2023/09/27 04:20:08;;;;;;;26.10;20.65;;;14.40;99.90;;;;;;5009834;28;20108;-58
2023/09/27 04:22:34;;;;;;;27.52;20.83;;;14.40;99.90;;;;;;5014422;28;20795;-58
2023/09/27 04:25:00;;;;;;;30.95;21.48;;;14.40;99.90;;;;;;5012549;28;20049;-58
2023/09/27 04:27:28;;;;;;;25.77;20.63;;;14.40;99.90;;;;;;5012273;28;20128;-58
2023/09/27 04:29:54;;;;;;;25.83;21.13;;;14.40;99.90;;;;;;5010678;28;20826;-58
2023/09/27 04:32:20;;;;;;;26.98;20.05;;;14.40;99.90;;;;;;5011502;28;20046;-57
2023/09/27 04:34:46;;;;;;;27.02;20.45;;;14.40;99.90;;;;;;5008528;28;20048;-58
2023/09/27 04:37:12;;;;;;;27.67;21.52;;;14.40;99.90;;;;;;4985531;28;20473;-58
2023/09/27 04:39:39;;;;;;;25.20;20.50;;;14.30;99.90;;;;;;5009965;28;20034;-58
2023/09/27 04:42:05;;;;;;;29.85;20.92;;;14.30;99.90;;;;;;5008866;28;20149;-58
2023/09/27 04:44:30;;;;;;;28.58;21.58;;;14.30;99.90;;;;;;5008513;28;20037;-58
2023/09/27 04:46:56;;;;;;;25.10;20.60;;;14.30;99.90;;;;;;4994644;28;20092;-58
2023/09/27 04:49:22;;;;;;;30.30;21.98;;;14.30;99.90;;;;;;5010536;28;20580;-58
2023/09/27 04:51:48;;;;;;;30.50;22.15;;;14.20;99.90;;;;;;5010359;28;20052;-57
2023/09/27 04:54:13;;;;;;;26.02;20.65;;;14.20;99.90;;;;;;5011859;28;20076;-57
2023/09/27 04:56:39;;;;;;;30.33;21.52;;;14.20;99.90;;;;;;5009691;28;20529;-57
2023/09/27 04:59:05;;;;;;;26.83;20.98;;;14.20;99.90;;;;;;5007230;28;20049;-58
2023/09/27 05:01:31;;;;;;;27.52;20.60;;;14.20;99.90;;;;;;5007306;28;20050;-58
2023/09/27 05:03:57;;;;;;;25.98;20.13;;;14.20;99.90;;;;;;4994488;28;20052;-58
2023/09/27 05:06:23;;;;;;;27.40;20.80;;;14.10;99.90;;;;;;4997028;28;20164;-58
2023/09/27 05:08:50;;;;;;;27.83;20.95;;;14.10;99.90;;;;;;5013604;28;20486;-57
2023/09/27 05:11:18;;;;;;;28.08;20.83;;;14.10;99.90;;;;;;5009680;28;20053;-57
2023/09/27 05:13:46;;;;;;;27.58;20.23;;;14.00;99.90;;;;;;5007558;28;20044;-58
2023/09/27 05:16:12;;;;;;;26.15;21.20;;;14.00;99.90;;;;;;4990162;28;20076;-58
2023/09/27 05:18:38;;;;;;;26.05;21.65;;;13.90;99.90;;;;;;5008743;28;20069;-58
2023/09/27 05:21:05;;;;;;;29.77;22.95;;;13.90;99.90;;;;;;5008665;28;20788;-58
2023/09/27 05:23:31;;;;;;;31.90;22.88;;;13.90;99.90;;;;;;5005797;28;20095;-57
2023/09/27 05:25:57;;;;;;;33.08;22.92;;;13.90;99.90;;;;;;5006918;28;20045;-58
2023/09/27 05:28:23;;;;;;;30.48;23.80;;;13.90;99.90;;;;;;5005534;28;20411;-57
2023/09/27 05:30:49;;;;;;;30.98;23.50;;;13.90;99.90;;;;;;5004992;28;20038;-57
2023/09/27 05:33:16;;;;;;;29.55;23.80;;;13.90;99.90;;;;;;5006210;28;20738;-56
2023/09/27 05:35:41;;;;;;;29.58;22.30;;;14.00;99.90;;;;;;5010818;28;20048;-56
2023/09/27 05:38:07;;;;;;;27.52;22.60;;;13.90;99.90;;;;;;4979010;28;20556;-58
2023/09/27 05:40:33;;;;;;;32.22;23.92;;;13.90;99.90;;;;;;5008886;28;20034;-58
2023/09/27 05:42:59;;;;;;;32.65;24.58;;;14.00;99.90;;;;;;5010112;28;20160;-59
2023/09/27 05:45:24;;;;;;;31.30;24.52;;;14.00;99.90;;;;;;5008271;28;20107;-58
2023/09/27 05:47:50;;;;;;;39.60;24.35;;;14.00;99.90;;;;;;4999926;28;20473;-58
2023/09/27 05:50:16;;;;;;;30.38;23.30;;;14.00;99.90;;;;;;5008713;28;20038;-56
2023/09/27 05:52:46;;;;;;;27.83;22.05;;;14.00;99.90;;;;;;5007996;28;20045;-59
2023/09/27 05:55:12;;;;;;;26.98;21.70;;;14.00;99.90;;;;;;4993004;28;20495;-57
2023/09/27 05:57:38;;;;;;;27.73;21.73;;;14.00;99.90;;;;;;5009595;28;20135;-58
2023/09/27 06:00:15;;;;;;;28.40;24.00;;;14.00;99.90;;;;;;5005856;28;20045;-57
2023/09/27 06:02:41;;;;;;;29.52;22.88;;;14.00;99.90;;;;;;5008004;28;20057;-58
2023/09/27 06:05:07;;;;;;;28.77;23.73;;;14.00;99.90;;;;;;5010164;28;20049;-58
2023/09/27 06:07:33;;;;;;;30.45;23.48;;;14.10;99.90;;;;;;5011608;28;20521;-58
2023/09/27 06:09:59;;;;;;;30.80;23.65;;;14.10;99.90;;;;;;5008593;28;20049;-58
2023/09/27 06:12:25;;;;;;;32.47;23.25;;;14.10;99.90;;;;;;5022710;28;20174;-58
2023/09/27 06:14:51;;;;;;;29.63;23.55;;;14.10;99.90;;;;;;5006283;28;20050;-59
2023/09/27 06:17:17;;;;;;;30.83;24.67;;;14.10;99.90;;;;;;5009138;28;20073;-57
2023/09/27 06:19:44;;;;;;;35.33;24.38;;;14.10;99.90;;;;;;4987691;28;20105;-59
2023/09/27 06:22:13;;;;;;;29.10;23.50;;;14.10;99.90;;;;;;4979886;28;20773;-60
2023/09/27 06:24:40;;;;;;;31.15;23.85;;;14.10;99.90;;;;;;4984861;28;20133;-60
2023/09/27 06:27:06;;;;;;;35.30;23.30;;;14.20;99.90;;;;;;4989918;28;20443;-60
2023/09/27 06:29:33;;;;;;;32.78;24.50;;;14.20;99.90;;;;;;4990485;28;20042;-59
2023/09/27 06:31:58;;;;;;;28.48;23.60;;;14.20;99.90;;;;;;5002519;28;20042;-60
2023/09/27 06:34:24;;;;;;;31.80;24.45;;;14.20;99.90;;;;;;4988800;28;20660;-60
2023/09/27 06:36:51;;;;;;;32.60;24.80;;;14.20;99.90;;;;;;4989497;28;20479;-60
2023/09/27 06:39:23;;;;;;;31.40;24.73;;;14.20;99.90;;;;;;4978489;28;20392;-59
2023/09/27 06:41:49;;;;;;;35.63;24.02;;;14.20;99.90;;;;;;5004372;28;20661;-60
2023/09/27 06:44:15;;;;;;;31.40;24.77;;;14.20;99.90;;;;;;4990418;28;20042;-60
2023/09/27 06:46:41;;;;;;;32.35;24.70;;;14.20;99.90;;;;;;4966291;28;20058;-60
2023/09/27 06:49:07;;;;;;;28.85;24.48;;;14.30;99.90;;;;;;4979126;28;20108;-59
2023/09/27 06:51:33;;;;;;;32.50;25.90;;;14.30;99.90;;;;;;4989842;28;20042;-60
2023/09/27 06:53:59;;;;;;;35.15;26.83;;;14.30;99.90;;;;;;4991238;28;20049;-60
2023/09/27 06:56:25;;;;;;;34.67;25.35;;;14.30;99.90;;;;;;4978873;28;20045;-60
2023/09/27 06:58:51;;;;;;;33.72;26.42;;;14.40;99.90;;;;;;4990123;28;20405;-60
2023/09/27 07:01:18;;;;;;;32.75;25.73;;;14.50;99.90;;;;;;5014536;28;20041;-59
2023/09/27 07:03:44;;;;;;;31.77;26.75;;;14.50;99.90;;;;;;4976104;28;20052;-59
2023/09/27 07:06:10;;;;;;;32.08;25.77;;;14.60;99.90;;;;;;4989173;28;20043;-59
2023/09/27 07:08:36;;;;;;;32.05;26.42;;;14.60;99.90;;;;;;5005057;28;20149;-59
2023/09/27 07:11:04;;;;;;;33.60;26.63;;;14.70;99.90;;;;;;4993233;28;20046;-58
2023/09/27 07:13:30;;;;;;;33.97;27.05;;;14.70;99.90;;;;;;4963388;28;20042;-59
2023/09/27 07:15:56;;;;;;;33.60;26.45;;;14.80;99.90;;;;;;4990593;28;20646;-60
2023/09/27 07:18:22;;;;;;;34.00;27.25;;;14.80;99.90;;;;;;4991124;28;20081;-60
2023/09/27 07:20:50;;;;;;;36.38;26.67;;;14.90;99.90;;;;;;4993241;28;20096;-58
2023/09/27 07:23:16;;;;;;;34.75;26.85;;;14.90;99.90;;;;;;4989906;28;20046;-59
2023/09/27 07:25:43;;;;;;;36.08;27.40;;;15.00;99.90;;;;;;4992716;28;20084;-60
2023/09/27 07:28:08;;;;;;;36.30;26.23;;;15.10;99.90;;;;;;4979524;28;20057;-58
2023/09/27 07:30:34;;;;;;;36.05;26.25;;;15.20;99.90;;;;;;4990951;28;20524;-59
2023/09/27 07:33:03;;;;;;;37.67;26.48;;;15.30;99.90;;;;;;4978931;28;20041;-59
2023/09/27 07:35:33;;;;;;;34.65;26.95;;;15.30;99.90;;;;;;4990702;28;20587;-59
2023/09/27 07:37:58;;;;;;;31.95;25.88;;;15.40;99.90;;;;;;4993262;28;20046;-60
2023/09/27 07:40:25;;;;;;;36.95;26.92;;;15.50;99.90;;;;;;4991663;28;20072;-60
2023/09/27 07:42:51;;;;;;;37.38;27.70;;;15.50;99.90;;;;;;4991453;28;20046;-59
2023/09/27 07:45:27;;;;;;;36.25;27.33;;;15.60;99.90;;;;;;4991727;28;20068;-59
2023/09/27 07:47:54;;;;;;;36.65;27.40;;;15.60;99.90;;;;;;4992833;28;20104;-59
2023/09/27 07:50:28;;;;;;;33.85;26.88;;;15.70;99.90;;;;;;4981388;28;20049;-58
2023/09/27 07:52:55;;;;;;;36.83;27.13;;;15.80;99.90;;;;;;4991974;28;20650;-59
2023/09/27 07:55:21;;;;;;;37.10;27.02;;;15.90;99.90;;;;;;4990980;28;20042;-59
2023/09/27 07:57:49;;;;;;;33.05;26.98;;;16.00;99.90;;;;;;4980880;28;20453;-59
2023/09/27 08:00:19;;;;;;;36.58;26.65;;;16.00;99.90;;;;;;4991429;28;20042;-60
2023/09/27 08:02:46;;;;;;;34.35;27.40;;;16.10;99.90;;;;;;4973751;28;20046;-60
2023/09/27 08:05:16;;;;;;;34.53;26.33;;;16.20;99.90;;;;;;4964379;28;20053;-60
2023/09/27 08:07:42;;;;;;;38.88;27.90;;;16.30;99.90;;;;;;4992150;28;20050;-60
2023/09/27 08:10:11;;;;;;;31.98;26.67;;;16.40;99.90;;;;;;4993456;28;20046;-59
2023/09/27 08:12:38;;;;;;;35.97;26.20;;;16.50;99.90;;;;;;4975982;28;20093;-60
2023/09/27 08:15:06;;;;;;;33.92;25.88;;;16.60;99.90;;;;;;4988220;28;20105;-59
2023/09/27 08:17:32;;;;;;;38.78;26.27;;;16.70;99.90;;;;;;4991913;28;20073;-60
2023/09/27 08:19:59;;;;;;;32.92;25.63;;;16.90;99.90;;;;;;5003307;28;22767;-60
2023/09/27 08:22:25;;;;;;;34.00;25.20;;;17.00;99.90;;;;;;5010457;28;20054;-60
2023/09/27 08:24:51;;;;;;;33.03;24.95;;;17.10;99.90;;;;;;5009959;28;20128;-60
2023/09/27 08:27:17;;;;;;;33.05;24.92;;;17.30;99.90;;;;;;5008935;28;20460;-59
2023/09/27 08:29:43;;;;;;;31.75;23.30;;;17.40;99.90;;;;;;5008998;28;20409;-59
2023/09/27 08:32:10;;;;;;;31.98;23.65;;;17.50;99.90;;;;;;5023488;28;20747;-60
2023/09/27 08:34:36;;;;;;;28.65;23.42;;;17.60;99.90;;;;;;5009799;28;20407;-60
2023/09/27 08:37:02;;;;;;;32.55;23.67;;;17.70;99.90;;;;;;5022538;28;20042;-60
2023/09/27 08:39:27;;;;;;;29.30;22.95;;;17.80;99.90;;;;;;5012731;28;20068;-59
2023/09/27 08:41:56;;;;;;;31.77;22.63;;;17.90;99.90;;;;;;5025267;28;20814;-60
2023/09/27 08:44:25;;;;;;;31.38;23.02;;;18.00;99.90;;;;;;5010104;28;20045;-60
2023/09/27 08:46:54;;;;;;;28.50;21.58;;;18.20;99.90;;;;;;5010670;28;20485;-60
2023/09/27 08:49:20;;;;;;;29.95;22.40;;;18.20;99.90;;;;;;5012699;28;20128;-60
2023/09/27 08:51:48;;;;;;;30.17;22.05;;;18.30;99.90;;;;;;5009131;28;20054;-61
2023/09/27 08:54:19;;;;;;;27.42;20.85;;;18.40;99.90;;;;;;5016187;28;20026;-60
2023/09/27 08:56:49;;;;;;;31.85;21.55;;;18.50;99.90;;;;;;5016734;28;20049;-60
2023/09/27 08:59:20;;;;;;;29.60;21.48;;;18.70;99.90;;;;;;5016891;28;20041;-61
2023/09/27 09:01:47;;;;;;;29.88;21.75;;;18.90;99.90;;;;;;5012783;28;21113;-60
2023/09/27 09:04:13;;;;;;;27.08;20.42;;;19.00;99.90;;;;;;5031600;28;20532;-60
2023/09/27 09:06:40;;;;;;;26.25;20.10;;;19.10;99.90;;;;;;5014794;28;20053;-61
2023/09/27 09:09:11;;;;;;;27.30;20.50;;;19.20;99.90;;;;;;5019650;28;20554;-59
2023/09/27 09:11:47;;;;;;;27.95;20.60;;;19.30;99.90;;;;;;5012580;28;20077;-60
2023/09/27 09:14:22;;;;;;;29.00;18.77;;;19.40;99.90;;;;;;5008129;28;20076;-60
2023/09/27 09:16:52;;;;;;;26.13;17.60;;;19.60;99.90;;;;;;5014356;28;20045;-60
2023/09/27 09:19:25;;;;;;;28.67;18.65;;;19.80;99.90;;;;;;5013784;28;20053;-61
2023/09/27 09:22:09;;;;;;;24.70;18.50;;;19.90;99.90;;;;;;5014387;28;20049;-60
2023/09/27 09:24:35;;;;;;;28.73;18.17;;;20.10;99.90;;;;;;5014906;28;20042;-60
2023/09/27 09:27:14;;;;;;;24.88;17.50;;;20.10;99.90;;;;;;5015921;28;20385;-61
2023/09/27 09:29:44;;;;;;;23.40;16.45;;;20.10;99.90;;;;;;5015018;28;20042;-60
2023/09/27 09:32:10;;;;;;;22.95;17.23;;;20.20;99.90;;;;;;5013370;28;20103;-60
2023/09/27 09:34:50;;;;;;;22.13;16.38;;;20.30;99.90;;;;;;5013557;28;20042;-60
2023/09/27 09:37:33;;;;;;;22.58;15.88;;;20.40;99.90;;;;;;5013524;28;20045;-61
2023/09/27 09:40:14;;;;;;;24.08;15.40;;;20.40;99.90;;;;;;5015169;28;20053;-60
2023/09/27 09:42:42;;;;;;;23.13;15.77;;;20.50;99.90;;;;;;5015730;28;20124;-60
2023/09/27 09:45:12;;;;;;;23.30;15.20;;;20.60;99.90;;;;;;5012899;28;20048;-60
2023/09/27 09:47:43;;;;;;;22.10;14.80;;;20.70;99.90;;;;;;5015899;28;20048;-61
2023/09/27 09:50:17;;;;;;;20.63;13.77;;;20.80;99.90;;;;;;5015628;28;20034;-60
2023/09/27 09:52:59;;;;;;;21.67;13.40;;;20.90;99.90;;;;;;5015651;28;20178;-61
2023/09/27 09:55:34;;;;;;;19.55;12.20;;;21.00;99.90;;;;;;5013687;28;20058;-60
2023/09/27 09:58:25;;;;;;;16.58;11.98;;;21.00;99.90;;;;;;4973222;28;20494;-60
2023/09/27 10:00:54;;;;;;;19.10;11.93;;;21.10;99.90;;;;;;5008029;28;20045;-61
2023/09/27 10:03:22;;;;;;;17.98;11.27;;;21.00;99.90;;;;;;5010017;28;20051;-61
2023/09/27 10:05:53;;;;;;;18.25;11.57;;;21.00;99.90;;;;;;5008905;28;20056;-60
2023/09/27 10:08:19;;;;;;;17.23;10.23;;;21.00;99.90;;;;;;5012003;28;20456;-60
2023/09/27 10:10:46;;;;;;;17.08;9.20;;;21.00;99.90;;;;;;5011218;28;20050;-61
2023/09/27 10:13:13;;;;;;;15.20;9.07;;;21.00;99.90;;;;;;5010262;28;20148;-60
2023/09/27 10:15:41;;;;;;;15.55;8.95;;;21.00;99.90;;;;;;5011996;28;20099;-61
2023/09/27 10:18:22;;;;;;;18.30;9.45;;;21.00;99.90;;;;;;5013294;28;20069;-60
2023/09/27 10:21:04;;;;;;;16.75;8.75;;;21.10;99.90;;;;;;5012799;28;20064;-60
2023/09/27 10:23:34;;;;;;;13.57;7.93;;;21.20;99.90;;;;;;5012003;28;20050;-60
2023/09/27 10:26:39;;;;;;;13.13;7.55;;;21.30;99.90;;;;;;5012768;28;20054;-60
2023/09/27 10:29:13;;;;;;;14.90;7.32;;;21.40;99.90;;;;;;5025785;28;20057;-60
2023/09/27 10:31:57;;;;;;;11.90;6.90;;;21.40;99.90;;;;;;5011550;28;20046;-60
2023/09/27 10:34:28;;;;;;;11.68;7.20;;;21.30;99.90;;;;;;5013453;28;20052;-60
2023/09/27 10:36:55;;;;;;;12.77;6.15;;;21.30;99.90;;;;;;5014394;28;20054;-60
2023/09/27 10:39:21;;;;;;;15.27;6.40;;;21.20;99.90;;;;;;5012905;28;20041;-59
2023/09/27 10:41:50;;;;;;;9.02;5.85;;;21.20;99.90;;;;;;5014019;28;20503;-61
2023/09/27 10:44:29;;;;;;;15.05;5.88;;;21.20;99.90;;;;;;5013199;28;20080;-60
2023/09/27 10:46:56;;;;;;;11.82;5.38;;;21.10;99.90;;;;;;5013163;28;20033;-60
2023/09/27 10:49:26;;;;;;;11.40;5.00;;;21.10;99.90;;;;;;5010666;28;20057;-59
2023/09/27 10:51:55;;;;;;;8.88;4.38;;;21.10;99.90;;;;;;4990920;28;20057;-60
2023/09/27 10:54:22;;;;;;;10.90;4.72;;;21.20;99.90;;;;;;5005395;28;20077;-60
2023/09/27 10:56:53;;;;;;;10.98;4.53;;;21.20;99.90;;;;;;5008286;28;20042;-59
2023/09/27 10:59:26;;;;;;;9.02;4.00;;;21.20;99.90;;;;;;5013476;28;20042;-60
2023/09/27 11:01:53;;;;;;;7.28;4.00;;;21.10;99.90;;;;;;5014050;28;20046;-61
2023/09/27 11:04:23;;;;;;;7.47;4.00;;;21.20;99.90;;;;;;5014428;28;20790;-60
2023/09/27 11:06:49;;;;;;;10.43;4.32;;;21.10;99.90;;;;;;5011851;28;20037;-59
2023/09/27 11:09:23;;;;;;;10.23;4.13;;;21.10;99.90;;;;;;5011868;28;20038;-60
2023/09/27 11:11:50;;;;;;;9.98;3.97;;;21.10;99.90;;;;;;5013434;28;20073;-60
2023/09/27 11:14:42;;;;;;;7.70;4.47;;;21.10;99.90;;;;;;5009372;28;20054;-59
2023/09/27 11:17:25;;;;;;;10.00;4.10;;;21.10;99.90;;;;;;5008166;28;20042;-60
2023/09/27 11:19:51;;;;;;;;;;;21.10;99.90;;;;;;5007623;28;21192;-61
2023/09/27 11:22:25;;;;;;;10.40;3.90;;;21.10;99.90;;;;;;5008380;28;20427;-60
2023/09/27 11:24:50;;;;;;;7.22;3.60;;;21.10;99.90;;;;;;5008893;28;20049;-60
2023/09/27 11:27:19;;;;;;;8.77;3.70;;;21.20;99.90;;;;;;5008806;28;20489;-59
2023/09/27 11:29:50;;;;;;;6.97;3.22;;;21.20;99.90;;;;;;5012433;28;20509;-59
2023/09/27 11:32:16;;;;;;;9.93;3.90;;;21.30;99.90;;;;;;5011889;28;20123;-60
2023/09/27 11:34:42;;;;;;;7.15;3.00;;;21.30;99.90;;;;;;5013983;28;20041;-60
2023/09/27 11:37:17;;;;;;;7.53;3.60;;;21.30;99.90;;;;;;5024570;28;20065;-60
2023/09/27 11:39:54;;;;;;;9.88;3.60;;;21.40;99.90;;;;;;5008766;28;20034;-59
2023/09/27 11:42:24;;;;;;;6.25;3.58;;;21.40;99.90;;;;;;5011796;28;20045;-59
2023/09/27 11:45:12;;;;;;;9.75;3.45;;;21.50;99.90;;;;;;5009872;28;20512;-61
2023/09/27 11:47:48;;;;;;;9.15;3.55;;;21.50;99.90;;;;;;4994463;28;20044;-60
2023/09/27 11:50:15;;;;;;;6.18;3.03;;;21.50;99.90;;;;;;4997644;28;20069;-58
2023/09/27 11:52:46;;;;;;;6.60;3.33;;;21.50;99.90;;;;;;5009411;28;20050;-60
2023/09/27 11:55:13;;;;;;;11.60;3.28;;;21.50;99.90;;;;;;5009436;28;20033;-60
2023/09/27 11:57:40;;;;;;;10.20;3.50;;;21.50;99.90;;;;;;4993224;28;20048;-60
2023/09/27 12:00:08;;;;;;;6.50;2.97;;;21.60;99.90;;;;;;4998020;28;20050;-60
2023/09/27 12:02:34;;;;;;;6.97;3.42;;;21.60;99.90;;;;;;5013921;28;20045;-60
2023/09/27 12:05:00;;;;;;;6.78;2.95;;;21.60;99.90;;;;;;5013699;28;20042;-61
2023/09/27 12:07:29;;;;;;;12.00;3.90;;;21.70;99.90;;;;;;5022763;28;20057;-60
2023/09/27 12:09:55;;;;;;;9.07;3.60;;;21.80;99.90;;;;;;5018231;28;20054;-60
2023/09/27 12:12:21;;;;;;;6.55;3.10;;;22.00;99.90;;;;;;5017969;28;20111;-60
2023/09/27 12:14:47;;;;;;;6.68;3.70;;;22.20;99.90;;;;;;5014150;28;20034;-60
2023/09/27 12:17:16;;;;;;;11.10;3.70;;;22.40;99.90;;;;;;5013502;28;20037;-59
2023/09/27 12:19:43;;;;;;;8.45;3.13;;;22.70;99.90;;;;;;5016440;28;20514;-61
2023/09/27 12:22:11;;;;;;;7.95;3.97;;;22.90;99.90;;;;;;5016178;28;20462;-60
2023/09/27 12:24:37;;;;;;;5.88;3.47;;;23.20;99.90;;;;;;5015094;28;20050;-61
2023/09/27 12:27:03;;;;;;;7.75;3.50;;;23.40;99.90;;;;;;5031500;28;20053;-60
2023/09/27 12:29:29;;;;;;;5.78;3.35;;;23.50;99.90;;;;;;5016189;28;20076;-60
2023/09/27 12:31:55;;;;;;;6.20;3.40;;;23.50;99.90;;;;;;5032584;28;20069;-60
2023/09/27 12:34:21;;;;;;;6.05;3.55;;;23.50;99.90;;;;;;5017146;28;20068;-60
2023/09/27 12:36:47;;;;;;;6.03;3.60;;;23.50;99.90;;;;;;5017548;28;20056;-60
2023/09/27 12:39:14;;;;;;;7.07;3.20;;;23.50;99.90;;;;;;5017183;28;20128;-60
2023/09/27 12:41:40;;;;;;;8.77;3.70;;;23.40;99.90;;;;;;5033805;28;20508;-60
2023/09/27 12:44:05;;;;;;;7.82;3.97;;;23.40;99.90;;;;;;5014800;28;20419;-60
2023/09/27 12:46:31;;;;;;;9.65;4.00;;;23.50;99.90;;;;;;5016496;28;20117;-60
2023/09/27 12:48:57;;;;;;;9.52;3.75;;;23.50;99.90;;;;;;5014845;28;20065;-60
2023/09/27 12:51:23;;;;;;;4.88;3.25;;;23.50;99.90;;;;;;5013720;28;20711;-61
2023/09/27 12:53:48;;;;;;;6.82;3.97;;;23.70;99.90;;;;;;5017133;28;20123;-60